Time;durP1;ratioP1;P1;durP2;ratioP2;P2;SDS_P1;SDS_P2;PMS_P1;PMS_P2;Temp;Humidity;BMP_temperature;BMP_pressure;BME280_temperature;BME280_humidity;BME280_pressure;Samples;Min_cycle;Max_cycle;Signal;HPM_P1;HPM_P2
2024/02/27 00:01:33;;;;;;;63.03;33.58;;;;;;;11.11;61.22;99519.94;6159179;22;100739;-84
2024/02/27 00:04:01;;;;;;;66.50;35.22;;;;;;;11.02;60.96;99515.13;6134424;22;97098;-84
2024/02/27 00:06:30;;;;;;;64.30;32.40;;;;;;;10.92;60.79;99498.97;6185879;22;97052;-84
2024/02/27 00:08:56;;;;;;;67.28;36.85;;;;;;;10.98;61.35;99531.97;6185822;22;97805;-84
2024/02/27 00:11:22;;;;;;;64.95;35.45;;;;;;;10.85;61.51;99526.47;6160588;22;97812;-84
2024/02/27 00:13:48;;;;;;;61.92;33.83;;;;;;;10.81;61.45;99524.91;6134674;22;96962;-84
2024/02/27 00:16:16;;;;;;;62.70;35.42;;;;;;;10.74;61.28;99516.47;6135672;22;96785;-84
2024/02/27 00:18:42;;;;;;;72.55;35.60;;;;;;;10.70;61.00;99514.06;6135609;22;100925;-85
2024/02/27 00:21:08;;;;;;;64.53;35.28;;;;;;;10.55;61.40;99505.13;6159351;22;101341;-84
2024/02/27 00:23:34;;;;;;;65.22;34.58;;;;;;;10.58;61.88;99532.06;6135504;22;96694;-84
2024/02/27 00:25:59;;;;;;;65.13;36.03;;;;;;;10.63;61.18;99516.13;6135638;22;96752;-84
2024/02/27 00:28:25;;;;;;;61.50;33.70;;;;;;;10.64;61.07;99537.03;6134968;22;101087;-84
2024/02/27 00:30:51;;;;;;;61.10;34.50;;;;;;;10.48;61.27;99499.31;6160686;22;97839;-84
2024/02/27 00:33:16;;;;;;;64.97;32.58;;;;;;;10.66;60.82;99521.22;6161120;22;96623;-85
2024/02/27 00:35:42;;;;;;;66.85;37.90;;;;;;;10.61;61.80;99533.72;6160342;22;97526;-84
2024/02/27 00:38:08;;;;;;;67.53;35.05;;;;;;;10.35;61.63;99503.44;6134894;22;100799;-84
2024/02/27 00:40:34;;;;;;;64.90;33.65;;;;;;;10.49;61.31;99539.53;6160366;22;97340;-84
2024/02/27 00:43:00;;;;;;;65.60;36.22;;;;;;;10.23;61.33;99510.03;6135340;22;97029;-85
2024/02/27 00:45:26;;;;;;;71.88;36.75;;;;;;;10.40;61.70;99539.03;6160466;22;96724;-85
2024/02/27 00:47:52;;;;;;;64.65;35.03;;;;;;;10.41;61.31;99537.25;6160422;22;98486;-84
2024/02/27 00:50:17;;;;;;;61.38;35.95;;;;;;;10.43;61.56;99546.75;6160275;22;101309;-84
2024/02/27 00:52:43;;;;;;;62.97;35.20;;;;;;;10.25;61.64;99526.56;6135628;22;96724;-84
2024/02/27 00:55:09;;;;;;;66.00;34.67;;;;;;;10.33;61.24;99539.38;6158901;22;97241;-84
2024/02/27 00:57:34;;;;;;;66.78;35.63;;;;;;;10.18;61.16;99538.25;6185623;22;97993;-84
2024/02/27 01:00:08;;;;;;;62.75;34.47;;;;;;;10.00;61.46;99513.69;6134441;22;100147;-84
2024/02/27 01:02:37;;;;;;;59.65;35.10;;;;;;;10.22;61.32;99554.72;6161094;22;97000;-85
2024/02/27 01:05:03;;;;;;;65.90;36.05;;;;;;;10.07;61.58;99553.63;6160702;22;97080;-84
2024/02/27 01:07:29;;;;;;;57.85;34.80;;;;;;;10.06;62.19;99563.25;6135015;22;101526;-85
2024/02/27 01:09:55;;;;;;;69.80;37.22;;;;;;;10.15;61.80;99549.75;6160373;22;101255;-84
2024/02/27 01:12:20;;;;;;;64.65;37.22;;;;;;;9.96;62.10;99533.97;6159698;22;96720;-84
2024/02/27 01:14:46;;;;;;;65.22;35.55;;;;;;;9.83;61.92;99509.22;6160835;22;97122;-84
2024/02/27 01:17:11;;;;;;;65.97;34.85;;;;;;;10.05;61.57;99558.94;6159649;22;97461;-85
2024/02/27 01:19:37;;;;;;;63.03;35.10;;;;;;;10.15;61.41;99565.50;6160948;22;101564;-84
2024/02/27 01:22:02;;;;;;;66.40;37.38;;;;;;;9.92;61.44;99531.56;6160269;22;97154;-85
2024/02/27 01:24:28;;;;;;;69.88;37.72;;;;;;;10.16;60.87;99555.84;6186254;22;96735;-84
2024/02/27 01:26:54;;;;;;;69.88;36.80;;;;;;;10.02;60.93;99516.28;6134075;22;101105;-84
2024/02/27 01:29:19;;;;;;;65.15;36.70;;;;;;;10.08;60.98;99553.56;6185677;22;101072;-84
2024/02/27 01:31:45;;;;;;;64.30;36.30;;;;;;;9.79;60.86;99499.78;6135305;22;97298;-84
2024/02/27 01:34:11;;;;;;;62.55;36.40;;;;;;;9.96;61.83;99547.06;6135626;22;96781;-85
2024/02/27 01:36:38;;;;;;;64.70;35.13;;;;;;;9.88;61.64;99538.69;6134484;22;101679;-85
2024/02/27 01:39:08;;;;;;;61.75;36.42;;;;;;;9.84;61.32;99541.53;6134750;22;100715;-84
2024/02/27 01:41:35;;;;;;;64.10;36.20;;;;;;;9.84;61.38;99537.13;6185803;22;96620;-85
2024/02/27 01:44:03;;;;;;;62.90;37.97;;;;;;;9.80;61.11;99519.81;6160863;22;96735;-84
2024/02/27 01:46:29;;;;;;;69.28;36.33;;;;;;;9.92;61.34;99548.13;6184878;22;97771;-84
2024/02/27 01:48:55;;;;;;;64.80;35.78;;;;;;;9.67;61.15;99523.91;6134994;22;100077;-85
2024/02/27 01:51:21;;;;;;;68.13;35.97;;;;;;;9.57;61.31;99504.22;6211951;22;96642;-84
2024/02/27 01:53:50;;;;;;;67.22;37.28;;;;;;;9.70;60.71;99523.75;6160398;22;96849;-84
2024/02/27 01:56:16;;;;;;;67.43;40.05;;;;;;;9.65;60.84;99516.09;6159631;22;101323;-84
2024/02/27 01:58:42;;;;;;;67.60;38.30;;;;;;;9.70;61.46;99532.47;6135058;22;100167;-84
2024/02/27 02:01:09;;;;;;;68.05;37.33;;;;;;;9.59;61.27;99523.38;6161065;22;97165;-84
2024/02/27 02:03:37;;;;;;;71.13;38.47;;;;;;;9.77;60.91;99569.75;6159897;22;97033;-84
2024/02/27 02:06:05;;;;;;;72.38;37.58;;;;;;;9.81;60.96;99579.22;6158738;22;100383;-84
2024/02/27 02:08:32;;;;;;;61.13;37.72;;;;;;;9.76;61.13;99586.41;6134588;22;101026;-84
2024/02/27 02:10:57;;;;;;;65.78;39.47;;;;;;;9.73;61.07;99605.72;6134562;22;97098;-84
2024/02/27 02:13:23;;;;;;;63.38;37.13;;;;;;;9.58;60.76;99597.66;6160242;22;96742;-84
2024/02/27 02:15:49;;;;;;;70.97;39.03;;;;;;;9.44;60.80;99572.03;6158914;22;100863;-85
2024/02/27 02:18:14;;;;;;;67.32;39.60;;;;;;;9.63;61.32;99608.78;6160310;22;101674;-83
2024/02/27 02:20:40;;;;;;;69.55;39.75;;;;;;;9.63;61.10;99617.53;6129920;22;96977;-84
2024/02/27 02:23:05;;;;;;;78.93;39.63;;;;;;;9.42;61.45;99592.19;6130000;22;96760;-84
2024/02/27 02:25:34;;;;;;;79.97;41.22;;;;;;;9.58;61.79;99608.16;6154280;22;101616;-84
2024/02/27 02:28:00;;;;;;;68.25;37.92;;;;;;;9.29;61.71;99563.88;6154877;22;101402;-84
2024/02/27 02:30:26;;;;;;;75.00;36.55;;;;;;;9.26;61.28;99581.50;6104923;22;96966;-84
2024/02/27 02:32:51;;;;;;;62.65;36.40;;;;;;;9.29;61.71;99599.69;6155833;22;96845;-83
2024/02/27 02:35:17;;;;;;;69.65;37.72;;;;;;;9.52;61.58;99632.81;6181367;22;97735;-85
2024/02/27 02:37:48;;;;;;;67.90;39.20;;;;;;;9.51;61.13;99634.59;6130842;22;98787;-84
2024/02/27 02:40:17;;;;;;;74.03;39.80;;;;;;;9.37;61.07;99613.34;6180014;22;96659;-85
2024/02/27 02:42:44;;;;;;;72.95;39.85;;;;;;;9.39;60.93;99626.38;6129496;22;96760;-84
2024/02/27 02:45:10;;;;;;;79.05;41.90;;;;;;;9.38;60.85;99622.06;6105114;22;101807;-85
2024/02/27 02:47:35;;;;;;;71.63;40.03;;;;;;;9.40;60.97;99604.50;6154456;22;98251;-85
2024/02/27 02:50:02;;;;;;;75.13;40.00;;;;;;;9.39;60.70;99637.69;6128921;22;97116;-85
2024/02/27 02:52:27;;;;;;;75.38;39.20;;;;;;;9.27;60.87;99627.72;6129294;22;97095;-84
2024/02/27 02:54:53;;;;;;;77.38;39.95;;;;;;;9.12;61.20;99610.84;6153849;22;101564;-84
2024/02/27 02:57:18;;;;;;;69.13;36.97;;;;;;;9.27;60.53;99632.94;6129707;22;97335;-84
2024/02/27 02:59:44;;;;;;;69.03;38.70;;;;;;;9.12;61.05;99613.47;6104496;22;96807;-85
2024/02/27 03:02:10;;;;;;;66.80;37.50;;;;;;;9.14;60.59;99623.88;6105511;22;97238;-85
2024/02/27 03:04:36;;;;;;;72.97;39.42;;;;;;;9.19;60.66;99645.47;6128739;22;101156;-84
2024/02/27 03:07:02;;;;;;;76.63;39.85;;;;;;;9.08;60.61;99638.06;6154231;22;101138;-85
2024/02/27 03:09:29;;;;;;;72.00;37.88;;;;;;;9.14;60.42;99639.59;6104852;22;96614;-84
2024/02/27 03:11:54;;;;;;;68.78;38.63;;;;;;;9.05;60.49;99627.72;6128419;22;97071;-85
2024/02/27 03:14:20;;;;;;;74.43;39.17;;;;;;;9.02;61.00;99623.44;6179666;22;97779;-85
2024/02/27 03:16:46;;;;;;;83.40;39.97;;;;;;;9.09;60.30;99642.38;6155230;22;101716;-85
2024/02/27 03:19:14;;;;;;;68.18;38.97;;;;;;;8.98;60.88;99650.63;6179765;22;96725;-84
2024/02/27 03:21:40;;;;;;;74.90;40.70;;;;;;;8.94;60.65;99640.34;6173325;22;96781;-84
2024/02/27 03:24:06;;;;;;;71.38;39.47;;;;;;;9.00;60.47;99654.06;6159248;22;96840;-85
2024/02/27 03:26:31;;;;;;;74.95;41.15;;;;;;;8.98;60.54;99655.88;6158795;22;99842;-85
2024/02/27 03:28:57;;;;;;;70.28;41.10;;;;;;;9.03;60.92;99653.09;6158922;22;96690;-84
2024/02/27 03:31:23;;;;;;;79.22;42.72;;;;;;;9.02;60.65;99659.25;6158750;22;96866;-85
2024/02/27 03:33:49;;;;;;;81.00;44.33;;;;;;;8.75;60.86;99607.00;6184420;22;100939;-84
2024/02/27 03:36:14;;;;;;;85.82;45.38;;;;;;;8.95;61.07;99656.00;6158440;22;102242;-85
2024/02/27 03:38:41;;;;;;;75.55;42.97;;;;;;;8.72;61.60;99627.22;6160114;22;96959;-85
2024/02/27 03:41:18;;;;;;;82.90;45.53;;;;;;;8.71;61.99;99625.53;6134390;22;96810;-85
2024/02/27 03:43:43;;;;;;;91.05;46.50;;;;;;;8.85;62.08;99659.88;6184749;22;97886;-84
2024/02/27 03:46:10;;;;;;;84.60;45.35;;;;;;;8.94;61.16;99671.78;6184928;22;97815;-85
2024/02/27 03:48:35;;;;;;;89.97;44.88;;;;;;;8.78;61.63;99654.00;6186019;22;96772;-86
2024/02/27 03:51:01;;;;;;;89.20;45.70;;;;;;;8.66;61.38;99646.59;6134413;22;96948;-85
2024/02/27 03:53:30;;;;;;;72.50;42.88;;;;;;;8.83;61.61;99673.00;6159027;22;98022;-83
2024/02/27 03:55:56;;;;;;;71.38;42.40;;;;;;;8.90;61.64;99673.66;6133679;22;100180;-84
2024/02/27 03:58:21;;;;;;;73.97;42.47;;;;;;;8.77;61.98;99675.00;6160187;22;96660;-86
2024/02/27 04:00:47;;;;;;;84.40;44.50;;;;;;;8.84;61.32;99681.72;6185224;22;96739;-86
2024/02/27 04:03:13;;;;;;;97.38;44.47;;;;;;;8.73;61.72;99689.97;6134457;22;100362;-86
2024/02/27 04:05:38;;;;;;;85.65;44.88;;;;;;;8.79;61.61;99688.91;6158844;22;101489;-85
2024/02/27 04:08:08;;;;;;;86.15;43.42;;;;;;;8.76;61.23;99689.00;6212691;22;96618;-86
2024/02/27 04:10:37;;;;;;;77.32;41.92;;;;;;;8.74;61.95;99693.44;6185462;22;96740;-85
2024/02/27 04:13:03;;;;;;;77.95;42.05;;;;;;;8.61;61.85;99693.03;6158924;22;101512;-86
2024/02/27 04:15:29;;;;;;;77.47;40.70;;;;;;;8.50;61.94;99654.19;6159409;22;98314;-86
2024/02/27 04:17:55;;;;;;;79.22;43.35;;;;;;;8.65;62.25;99688.53;6134319;22;96832;-84
2024/02/27 04:20:22;;;;;;;82.60;41.28;;;;;;;8.63;62.27;99703.44;6158816;22;96755;-83
2024/02/27 04:22:47;;;;;;;80.05;42.95;;;;;;;8.66;61.92;99705.94;6185135;22;97846;-84
2024/02/27 04:25:13;;;;;;;81.93;42.65;;;;;;;8.61;61.49;99701.75;6158881;22;98021;-84
2024/02/27 04:27:39;;;;;;;74.93;40.83;;;;;;;8.51;61.46;99689.88;6160030;22;97209;-84
2024/02/27 04:30:06;;;;;;;85.47;43.22;;;;;;;8.59;61.68;99715.78;6134451;22;96813;-84
2024/02/27 04:32:32;;;;;;;75.70;41.78;;;;;;;8.57;61.34;99707.13;6159387;22;100847;-83
2024/02/27 04:34:57;;;;;;;74.70;42.88;;;;;;;8.61;60.91;99716.59;6134376;22;101290;-86
2024/02/27 04:37:23;;;;;;;71.57;41.53;;;;;;;8.58;61.48;99712.31;6159523;22;96649;-86
2024/02/27 04:39:48;;;;;;;74.45;42.05;;;;;;;8.33;61.69;99665.19;6134523;22;96923;-86
2024/02/27 04:42:14;;;;;;;76.60;44.38;;;;;;;8.52;62.06;99709.03;6183488;22;98189;-85
2024/02/27 04:44:39;;;;;;;81.45;44.97;;;;;;;8.52;62.02;99703.81;6184242;22;98254;-84
2024/02/27 04:47:05;;;;;;;78.40;43.13;;;;;;;8.54;62.28;99708.06;6159225;22;96653;-85
2024/02/27 04:49:34;;;;;;;77.57;41.28;;;;;;;8.47;62.38;99708.38;6159556;22;96963;-86
2024/02/27 04:51:59;;;;;;;74.65;41.85;;;;;;;8.43;62.10;99710.22;6185051;22;97597;-86
2024/02/27 04:54:25;;;;;;;76.05;44.67;;;;;;;8.46;61.99;99714.50;6135181;22;100985;-85
2024/02/27 04:56:50;;;;;;;74.38;42.50;;;;;;;8.31;61.60;99692.31;6160552;22;96657;-84
2024/02/27 04:59:16;;;;;;;78.38;42.28;;;;;;;8.42;61.41;99707.66;6161379;22;96763;-85
2024/02/27 05:01:46;;;;;;;82.53;41.83;;;;;;;8.46;61.64;99722.34;6135261;22;101645;-86
2024/02/27 05:04:12;;;;;;;74.82;39.15;;;;;;;8.42;62.01;99718.97;6160507;22;100804;-85
2024/02/27 05:06:37;;;;;;;79.68;40.75;;;;;;;8.31;61.75;99701.00;6159096;22;96570;-86
2024/02/27 05:09:03;;;;;;;73.00;40.85;;;;;;;8.34;61.85;99713.97;6135473;22;96802;-86
2024/02/27 05:11:29;;;;;;;68.38;40.08;;;;;;;8.36;61.09;99713.94;6159564;22;97325;-86
2024/02/27 05:13:54;;;;;;;74.60;39.60;;;;;;;8.33;61.14;99714.03;6184784;22;97972;-85
2024/02/27 05:16:20;;;;;;;70.90;41.63;;;;;;;8.37;61.21;99718.25;6160531;22;96951;-86
2024/02/27 05:18:45;;;;;;;72.45;43.75;;;;;;;8.14;61.17;99691.16;6186328;22;97247;-86
2024/02/27 05:21:11;;;;;;;77.93;42.97;;;;;;;8.34;61.03;99716.59;6184644;22;97461;-86
2024/02/27 05:23:37;;;;;;;87.35;43.38;;;;;;;8.38;61.35;99730.44;6160372;22;101427;-87
2024/02/27 05:26:03;;;;;;;73.20;40.38;;;;;;;8.35;61.75;99734.00;6159226;22;96723;-87
2024/02/27 05:28:29;;;;;;;72.03;40.92;;;;;;;8.27;61.90;99730.78;6160452;22;96724;-85
2024/02/27 05:30:55;;;;;;;77.95;42.33;;;;;;;8.15;62.31;99718.97;6159448;22;100062;-86
2024/02/27 05:33:21;;;;;;;78.15;41.88;;;;;;;8.27;62.09;99743.00;6135958;22;101140;-86
2024/02/27 05:35:47;;;;;;;74.22;41.97;;;;;;;8.23;61.76;99738.78;6132938;22;97090;-86
2024/02/27 05:38:12;;;;;;;74.03;42.30;;;;;;;8.10;61.88;99726.13;6159159;22;96754;-86
2024/02/27 05:40:38;;;;;;;78.15;42.78;;;;;;;7.98;61.68;99715.22;6184479;22;97947;-87
2024/02/27 05:43:03;;;;;;;77.47;43.15;;;;;;;8.15;61.98;99741.66;6133042;22;101265;-87
2024/02/27 05:45:29;;;;;;;74.25;43.15;;;;;;;7.97;62.40;99705.66;6158297;22;97069;-87
2024/02/27 05:47:54;;;;;;;83.07;43.05;;;;;;;8.24;62.53;99753.56;6158624;22;97101;-87
2024/02/27 05:50:20;;;;;;;82.63;42.40;;;;;;;8.19;61.58;99735.41;6159305;22;98238;-85
2024/02/27 05:52:49;;;;;;;81.72;42.85;;;;;;;8.11;61.71;99729.59;6159881;22;97805;-82
2024/02/27 05:55:14;;;;;;;86.07;45.33;;;;;;;8.26;61.87;99760.47;6160265;22;97301;-85
2024/02/27 05:57:40;;;;;;;78.28;42.55;;;;;;;8.24;61.94;99756.19;6136189;22;96755;-86
2024/02/27 06:00:09;;;;;;;79.68;42.83;;;;;;;8.21;61.41;99769.38;6160623;22;100357;-86
2024/02/27 06:02:34;;;;;;;83.88;43.78;;;;;;;8.07;61.88;99757.59;6135794;22;101187;-86
2024/02/27 06:05:00;;;;;;;80.38;45.08;;;;;;;8.25;62.06;99773.56;6134493;22;97443;-87
2024/02/27 06:07:25;;;;;;;74.68;42.38;;;;;;;8.18;62.16;99759.88;6160309;22;96992;-84
2024/02/27 06:09:51;;;;;;;78.15;41.85;;;;;;;8.38;61.89;99785.34;6135512;22;100520;-81
2024/02/27 06:12:16;;;;;;;88.40;44.10;;;;;;;8.29;61.58;99770.81;6159091;22;101962;-84
2024/02/27 06:14:42;;;;;;;75.20;42.60;;;;;;;8.39;61.98;99772.25;6135823;22;96746;-87
2024/02/27 06:17:08;;;;;;;79.72;42.03;;;;;;;8.44;61.79;99785.19;6211500;22;96706;-83
2024/02/27 06:19:34;;;;;;;88.00;43.47;;;;;;;8.41;61.36;99773.94;6134256;22;101510;-86
2024/02/27 06:22:14;;;;;;;90.20;43.22;;;;;;;8.37;61.86;99760.09;6159684;22;101467;-86
2024/02/27 06:24:40;;;;;;;78.43;42.38;;;;;;;8.61;61.30;99790.69;6161171;22;97119;-86
2024/02/27 06:27:08;;;;;;;74.68;42.22;;;;;;;8.59;61.20;99783.81;6159783;22;96826;-87
2024/02/27 06:29:34;;;;;;;79.28;43.95;;;;;;;8.74;61.04;99800.72;6134252;22;101129;-86
2024/02/27 06:31:59;;;;;;;74.50;42.15;;;;;;;8.41;61.25;99766.97;6133696;22;100737;-86
2024/02/27 06:34:26;;;;;;;79.22;42.10;;;;;;;8.80;60.95;99803.13;6185108;22;96612;-86
2024/02/27 06:36:51;;;;;;;87.38;43.47;;;;;;;8.88;61.25;99798.47;6184719;22;97247;-86
2024/02/27 06:39:17;;;;;;;78.53;44.05;;;;;;;8.98;60.74;99809.47;6184883;22;101009;-86
2024/02/27 06:41:50;;;;;;;75.75;42.72;;;;;;;9.07;60.51;99796.94;6184076;22;97873;-87
2024/02/27 06:44:17;;;;;;;77.07;40.78;;;;;;;9.23;61.10;99810.31;6159762;22;96713;-86
2024/02/27 06:46:42;;;;;;;68.38;38.95;;;;;;;9.06;61.05;99768.16;6133616;22;96729;-86
2024/02/27 06:49:08;;;;;;;78.57;42.33;;;;;;;9.47;60.93;99790.19;6134262;22;101073;-86
2024/02/27 06:51:33;;;;;;;75.60;41.10;;;;;;;9.61;60.88;99781.81;6158750;22;97723;-85
2024/02/27 06:53:59;;;;;;;70.35;41.65;;;;;;;9.50;60.44;99728.97;6159944;22;96686;-85
2024/02/27 06:56:24;;;;;;;75.15;41.33;;;;;;;9.89;61.06;99765.88;6158628;22;97228;-86
2024/02/27 06:58:50;;;;;;;72.93;40.63;;;;;;;10.12;61.17;99766.69;6159344;22;101284;-86
2024/02/27 07:01:16;;;;;;;70.72;39.55;;;;;;;10.18;60.41;99743.72;6134158;22;101320;-86
2024/02/27 07:03:41;;;;;;;62.83;36.00;;;;;;;10.80;59.50;99804.13;6159262;22;97068;-86
2024/02/27 07:06:07;;;;;;;68.40;39.75;;;;;;;10.96;59.65;99797.25;6158724;22;96706;-86
2024/02/27 07:08:33;;;;;;;61.05;36.70;;;;;;;10.96;59.56;99773.63;6184120;22;97393;-83
2024/02/27 07:10:59;;;;;;;68.68;38.15;;;;;;;11.06;59.83;99797.72;6183134;22;100003;-79
2024/02/27 07:13:24;;;;;;;59.88;37.03;;;;;;;10.91;59.86;99793.13;6133689;22;97176;-82
2024/02/27 07:15:50;;;;;;;68.65;37.05;;;;;;;10.90;59.74;99786.19;6183482;22;97193;-83
2024/02/27 07:18:15;;;;;;;60.38;34.67;;;;;;;11.10;59.57;99808.00;6184708;22;98121;-81
2024/02/27 07:20:42;;;;;;;54.28;35.03;;;;;;;11.17;59.55;99808.63;6129060;22;101200;-85
2024/02/27 07:23:08;;;;;;;58.88;36.67;;;;;;;11.20;59.19;99818.09;6129373;22;96923;-82
2024/02/27 07:25:34;;;;;;;58.70;36.25;;;;;;;11.17;59.13;99797.22;6128562;22;96660;-85
2024/02/27 07:27:59;;;;;;;65.30;39.13;;;;;;;11.38;59.33;99825.19;6153261;22;97831;-82
2024/02/27 07:30:28;;;;;;;67.93;37.65;;;;;;;11.07;59.38;99804.69;6153239;22;99684;-82
2024/02/27 07:32:54;;;;;;;56.58;37.28;;;;;;;11.21;nan;99819.84;6103280;22;96828;-82
2024/02/27 07:35:19;;;;;;;55.38;36.20;;;;;;;11.30;59.30;99820.28;6102051;22;97146;-82
2024/02/27 07:37:45;;;;;;;62.35;34.97;;;;;;;11.48;59.23;99828.25;6127876;22;100575;-81
2024/02/27 07:40:11;;;;;;;53.55;34.55;;;;;;;11.45;58.75;99818.72;6128324;22;101468;-82
2024/02/27 07:42:36;;;;;;;53.38;32.92;;;;;;;11.56;57.96;99836.63;6152733;22;96666;-82
2024/02/27 07:45:03;;;;;;;55.47;33.35;;;;;;;11.52;58.03;99841.19;6104195;22;97364;-81
2024/02/27 07:47:29;;;;;;;47.97;32.08;;;;;;;11.54;58.63;99831.44;6129494;22;97884;-81
2024/02/27 07:49:54;;;;;;;49.33;30.95;;;;;;;11.91;57.46;99855.22;6104849;22;101208;-82
2024/02/27 07:52:20;;;;;;;50.17;31.75;;;;;;;12.30;56.10;99841.94;6104676;22;97204;-81
2024/02/27 07:54:45;;;;;;;55.28;31.10;;;;;;;12.46;55.50;99821.84;6128978;22;96842;-80
2024/02/27 07:57:11;;;;;;;57.28;32.67;;;;;;;12.40;55.66;99847.63;6150016;22;97585;-81
2024/02/27 07:59:37;;;;;;;51.10;33.95;;;;;;;12.27;55.63;99854.38;6153350;22;98231;-81
2024/02/27 08:02:03;;;;;;;52.85;34.35;;;;;;;12.05;56.05;99847.53;6153145;22;96674;-82
2024/02/27 08:04:28;;;;;;;55.35;34.55;;;;;;;11.75;55.82;99852.41;6154141;22;96806;-82
2024/02/27 08:06:54;;;;;;;59.33;36.85;;;;;;;11.60;56.64;99853.13;6127064;22;99501;-82
2024/02/27 08:09:19;;;;;;;66.90;37.25;;;;;;;11.35;56.88;99841.09;6103810;22;101658;-86
2024/02/27 08:11:45;;;;;;;64.20;38.92;;;;;;;11.32;57.08;99862.25;6153119;22;96734;-85
2024/02/27 08:14:10;;;;;;;64.88;39.80;;;;;;;11.18;57.13;99877.78;6128907;22;96933;-83
2024/02/27 08:16:36;;;;;;;62.08;37.00;;;;;;;11.07;57.45;99871.19;6126754;22;101761;-85
2024/02/27 08:19:04;;;;;;;55.17;34.97;;;;;;;10.97;57.65;99872.53;6153042;22;97681;-85
2024/02/27 08:21:33;;;;;;;59.42;35.88;;;;;;;10.71;57.13;99875.41;6127453;22;97427;-85
2024/02/27 08:24:00;;;;;;;64.15;38.55;;;;;;;10.53;57.50;99870.00;6154370;22;96809;-82
2024/02/27 08:26:26;;;;;;;70.53;39.67;;;;;;;10.55;57.76;99877.78;6149766;22;101133;-86
2024/02/27 08:28:52;;;;;;;68.95;39.33;;;;;;;10.49;58.01;99876.25;6154099;22;97837;-83
2024/02/27 08:31:19;;;;;;;65.65;40.05;;;;;;;10.39;58.19;99875.78;6129980;22;96850;-83
2024/02/27 08:33:44;;;;;;;62.55;37.75;;;;;;;10.29;58.30;99876.22;6127513;22;97393;-82
2024/02/27 08:36:10;;;;;;;61.13;38.38;;;;;;;10.24;58.18;99873.75;6128243;22;101096;-81
2024/02/27 08:38:35;;;;;;;63.58;38.05;;;;;;;10.21;58.42;99887.00;6128540;22;101439;-85
2024/02/27 08:41:01;;;;;;;71.97;38.45;;;;;;;10.21;58.68;99884.38;6103332;22;97374;-85
2024/02/27 08:43:26;;;;;;;58.40;36.13;;;;;;;10.05;59.05;99902.44;6128394;22;97033;-86
2024/02/27 08:45:52;;;;;;;54.03;34.15;;;;;;;9.85;59.98;99913.69;6152451;22;97391;-85
2024/02/27 08:48:18;;;;;;;57.28;34.80;;;;;;;9.87;59.76;99890.06;6128493;22;97939;-84
2024/02/27 08:50:45;;;;;;;56.95;33.00;;;;;;;9.80;59.72;99878.94;6104621;22;96678;-84
2024/02/27 08:53:11;;;;;;;59.65;35.35;;;;;;;10.05;59.32;99906.84;6126756;22;96770;-85
2024/02/27 08:55:37;;;;;;;50.65;32.50;;;;;;;9.94;60.01;99909.88;6153462;22;97851;-84
2024/02/27 08:58:04;;;;;;;49.10;32.35;;;;;;;9.93;59.87;99906.41;6153481;22;97727;-85
2024/02/27 09:00:29;;;;;;;48.65;31.02;;;;;;;9.94;60.40;99905.47;6130087;22;96636;-83
2024/02/27 09:02:55;;;;;;;51.38;31.65;;;;;;;9.95;60.34;99919.47;6104375;22;97568;-84
2024/02/27 09:05:20;;;;;;;54.35;34.35;;;;;;;9.90;60.60;99914.38;6127321;22;97350;-87
2024/02/27 09:07:46;;;;;;;52.08;34.88;;;;;;;9.79;60.90;99924.41;6102027;22;101321;-85
2024/02/27 09:10:11;;;;;;;51.92;35.22;;;;;;;9.73;61.56;99916.78;6151172;22;96618;-85
2024/02/27 09:12:39;;;;;;;56.17;32.63;;;;;;;9.81;61.20;99921.75;6127177;22;97232;-85
2024/02/27 09:15:05;;;;;;;58.58;35.92;;;;;;;9.84;61.13;99925.09;6103736;22;101460;-85
2024/02/27 09:17:31;;;;;;;51.92;34.60;;;;;;;9.90;61.46;99929.25;6153527;22;97306;-85
2024/02/27 09:19:58;;;;;;;56.95;34.20;;;;;;;9.75;61.93;99928.91;6104161;22;97300;-86
2024/02/27 09:22:23;;;;;;;54.90;35.85;;;;;;;9.78;61.49;99920.09;6126219;22;97181;-85
2024/02/27 09:24:49;;;;;;;65.88;38.17;;;;;;;9.87;62.02;99924.13;6153631;22;98402;-84
2024/02/27 09:27:15;;;;;;;56.33;35.67;;;;;;;9.90;61.72;99929.25;6129381;22;101618;-84
2024/02/27 09:29:40;;;;;;;55.67;36.10;;;;;;;9.99;62.42;99926.28;6150986;22;96701;-85
2024/02/27 09:32:06;;;;;;;53.92;35.13;;;;;;;10.01;62.31;99915.75;6152140;22;96862;-85
2024/02/27 09:34:32;;;;;;;52.17;34.35;;;;;;;9.83;62.13;99883.19;6126013;22;101275;-84
2024/02/27 09:36:57;;;;;;;53.80;36.28;;;;;;;9.93;62.32;99897.69;6151594;22;98011;-84
2024/02/27 09:39:23;;;;;;;57.17;34.90;;;;;;;9.95;61.96;99906.34;6128200;22;97160;-82
2024/02/27 09:42:08;;;;;;;69.63;37.53;;;;;;;10.15;62.32;99922.19;6129271;22;96813;-84
2024/02/27 09:44:38;;;;;;;62.25;38.15;;;;;;;10.16;62.32;99929.13;6129004;22;97867;-86
2024/02/27 09:47:05;;;;;;;53.25;35.33;;;;;;;10.22;61.66;99924.56;6154449;22;97523;-85
2024/02/27 09:49:34;;;;;;;63.22;36.88;;;;;;;10.18;61.90;99924.69;6129299;22;97171;-83
2024/02/27 09:52:00;;;;;;;57.72;36.72;;;;;;;10.19;62.01;99920.28;6129779;22;97078;-86
2024/02/27 09:54:26;;;;;;;63.00;39.10;;;;;;;10.24;61.97;99939.34;6127193;22;101204;-85
2024/02/27 09:56:53;;;;;;;62.97;37.13;;;;;;;10.25;62.21;99924.44;6101791;22;100993;-85
2024/02/27 09:59:19;;;;;;;60.58;37.30;;;;;;;10.40;62.28;99921.25;6126294;22;97179;-84
2024/02/27 10:01:45;;;;;;;64.47;38.47;;;;;;;10.43;62.49;99923.75;6128063;22;96991;-84
2024/02/27 10:04:11;;;;;;;56.47;37.80;;;;;;;10.38;62.03;99902.06;6151659;22;97545;-84
2024/02/27 10:06:38;;;;;;;59.13;37.90;;;;;;;10.58;62.15;99951.16;6125783;22;101313;-82
2024/02/27 10:09:06;;;;;;;54.72;38.05;;;;;;;10.22;62.25;99917.53;6151158;22;96755;-83
2024/02/27 10:11:31;;;;;;;60.38;38.50;;;;;;;10.31;62.46;99929.47;6126954;22;96741;-82
2024/02/27 10:13:58;;;;;;;66.07;37.92;;;;;;;10.46;62.09;99935.91;6150757;22;97548;-83
2024/02/27 10:16:24;;;;;;;62.20;36.92;;;;;;;10.57;61.87;99950.28;6151660;22;97267;-83
2024/02/27 10:18:49;;;;;;;62.65;37.65;;;;;;;10.60;62.15;99954.56;6152027;22;96696;-82
2024/02/27 10:21:20;;;;;;;61.92;41.30;;;;;;;10.53;62.68;99948.72;6135113;22;97449;-82
2024/02/27 10:23:46;;;;;;;60.00;41.47;;;;;;;10.31;62.28;99932.94;6124980;22;100743;-82
2024/02/27 10:26:12;;;;;;;55.08;37.17;;;;;;;10.39;62.54;99941.38;6150629;22;101657;-83
2024/02/27 10:28:38;;;;;;;65.63;43.80;;;;;;;10.41;62.89;99941.31;6149397;22;96654;-83
2024/02/27 10:31:06;;;;;;;76.10;45.22;;;;;;;10.46;62.56;99931.50;6151406;22;97246;-83
2024/02/27 10:33:31;;;;;;;66.80;42.13;;;;;;;10.44;63.27;99949.06;6150293;22;102175;-82
2024/02/27 10:35:57;;;;;;;61.22;38.78;;;;;;;10.42;63.40;99940.41;6125680;22;100361;-86
2024/02/27 10:38:23;;;;;;;60.58;40.05;;;;;;;10.47;63.51;99942.84;6151304;22;96711;-82
2024/02/27 10:40:49;;;;;;;68.30;38.03;;;;;;;10.56;63.05;99964.34;6177159;22;96748;-82
2024/02/27 10:43:14;;;;;;;55.75;36.97;;;;;;;10.50;63.56;99961.97;6125620;22;101207;-83
2024/02/27 10:45:43;;;;;;;60.00;36.25;;;;;;;10.45;63.62;99923.69;6126139;22;100776;-83
2024/02/27 10:48:09;;;;;;;60.88;36.17;;;;;;;10.53;63.38;99937.34;6150732;22;96645;-82
2024/02/27 10:50:35;;;;;;;66.95;36.05;;;;;;;10.54;63.92;99949.56;6151368;22;96865;-84
2024/02/27 10:53:04;;;;;;;63.20;35.42;;;;;;;10.52;63.74;99952.25;6127903;22;101776;-84
2024/02/27 10:55:30;;;;;;;54.10;33.78;;;;;;;10.53;63.43;99953.09;6128245;22;101177;-82
2024/02/27 10:57:59;;;;;;;51.10;34.05;;;;;;;10.38;63.27;99936.19;6152694;22;97123;-83
2024/02/27 11:00:29;;;;;;;53.85;36.35;;;;;;;10.36;63.80;99930.16;6151635;22;97149;-83
2024/02/27 11:02:56;;;;;;;61.45;36.22;;;;;;;10.51;63.86;99949.69;6151139;22;97500;-82
2024/02/27 11:05:24;;;;;;;56.20;36.80;;;;;;;10.55;63.32;99946.88;6150944;22;97410;-82
2024/02/27 11:07:50;;;;;;;63.17;41.63;;;;;;;10.47;63.43;99942.84;6127104;22;96777;-82
2024/02/27 11:10:16;;;;;;;65.25;42.13;;;;;;;10.56;63.97;99950.34;6151403;22;96873;-84
2024/02/27 11:12:42;;;;;;;75.65;39.05;;;;;;;10.53;64.02;99937.34;6124920;22;101393;-83
2024/02/27 11:15:09;;;;;;;68.15;38.60;;;;;;;10.70;63.52;99952.41;6125782;22;102089;-83